Time;durP1;ratioP1;P1;durP2;ratioP2;P2;SDS_P1;SDS_P2;PMS_P1;PMS_P2;Temp;Humidity;BMP_temperature;BMP_pressure;BME280_temperature;BME280_humidity;BME280_pressure;Samples;Min_cycle;Max_cycle;Signal;HPM_P1;HPM_P2
2023/12/09 00:00:08;;;;;;;9.70;3.70;;;;;;;11.96;33.98;101159.06;105393;1257;63694;-58
2023/12/09 00:02:36;;;;;;;13.50;5.50;;;;;;;12.03;33.93;101158.34;105653;1256;61392;-58
2023/12/09 00:05:04;;;;;;;10.00;3.50;;;;;;;12.13;33.93;101161.70;105545;1257;64299;-55
2023/12/09 00:07:32;;;;;;;11.80;3.50;;;;;;;12.19;33.93;101168.65;105617;1257;60518;-57
2023/12/09 00:09:59;;;;;;;11.80;4.80;;;;;;;12.15;33.80;101173.64;105128;1257;60599;-60
2023/12/09 00:12:27;;;;;;;9.70;4.20;;;;;;;12.07;33.82;101176.86;104993;1255;64927;-59
2023/12/09 00:14:55;;;;;;;10.60;5.00;;;;;;;12.05;33.92;101179.98;103071;1258;3661157;-61
2023/12/09 00:30:22;;;;;;;15.80;11.30;;;;;;;10.20;37.23;101179.16;103222;1283;604411;-59
2023/12/09 00:32:50;;;;;;;9.10;3.60;;;;;;;12.00;33.95;101175.09;102032;1272;3440556;-60
2023/12/09 00:35:18;;;;;;;9.40;4.20;;;;;;;11.99;33.96;101173.94;104805;1269;59297;-60
2023/12/09 00:37:45;;;;;;;11.80;5.80;;;;;;;12.00;34.11;101171.05;104774;1269;60127;-60
2023/12/09 00:40:13;;;;;;;9.20;4.50;;;;;;;11.95;34.19;101174.23;104509;1267;60273;-60
2023/12/09 00:42:41;;;;;;;9.80;4.30;;;;;;;11.83;34.19;101174.93;104554;1270;62515;-58
2023/12/09 00:45:09;;;;;;;12.00;5.20;;;;;;;11.68;34.31;101177.37;104797;1270;59283;-59
2023/12/09 00:47:36;;;;;;;11.30;4.80;;;;;;;11.64;34.35;101180.62;104805;1266;59270;-58
2023/12/09 00:50:05;;;;;;;8.30;4.00;;;;;;;11.65;34.43;101183.38;104539;1264;62259;-58
2023/12/09 00:52:33;;;;;;;11.70;4.40;;;;;;;11.67;34.57;101183.23;105144;1269;60213;-59
2023/12/09 00:55:01;;;;;;;9.20;4.00;;;;;;;11.73;34.57;101186.15;104597;1269;62425;-59
2023/12/09 00:57:28;;;;;;;14.50;6.70;;;;;;;11.78;34.53;101190.02;104591;1267;59799;-59
2023/12/09 00:59:56;;;;;;;13.00;6.10;;;;;;;11.82;34.47;101192.79;105307;1266;59576;-59
2023/12/09 01:02:23;;;;;;;11.60;5.00;;;;;;;11.83;34.34;101192.48;104701;1264;73946;-59
2023/12/09 01:04:52;;;;;;;12.40;5.80;;;;;;;11.77;34.41;101190.48;104675;1264;61350;-59
2023/12/09 01:07:20;;;;;;;10.60;4.40;;;;;;;11.67;34.38;101191.15;104575;1267;62440;-59
2023/12/09 01:09:47;;;;;;;14.90;5.30;;;;;;;11.60;34.43;101190.13;104562;1267;59653;-58
2023/12/09 01:12:15;;;;;;;10.40;4.60;;;;;;;11.49;34.60;101185.41;104510;1267;60274;-59
2023/12/09 01:14:43;;;;;;;12.40;5.80;;;;;;;11.39;34.63;101183.84;104852;1265;62941;-60
2023/12/09 01:17:11;;;;;;;14.00;6.90;;;;;;;11.28;34.81;101182.48;104645;1267;61345;-59
2023/12/09 01:19:39;;;;;;;10.30;4.50;;;;;;;11.27;34.98;101179.95;104426;1266;63687;-59
2023/12/09 01:22:06;;;;;;;11.00;4.20;;;;;;;11.34;34.81;101178.55;104427;1269;59772;-59
2023/12/09 01:24:34;;;;;;;12.30;4.90;;;;;;;11.41;34.85;101181.79;104449;1267;59634;-59
2023/12/09 01:27:02;;;;;;;10.70;4.60;;;;;;;11.52;34.89;101180.84;104987;1264;62963;-60
2023/12/09 01:29:30;;;;;;;11.20;4.60;;;;;;;11.63;34.91;101183.34;104768;1266;61308;-60
2023/12/09 01:31:57;;;;;;;11.30;4.50;;;;;;;11.67;34.72;101184.13;104588;1265;62520;-59
2023/12/09 01:34:25;;;;;;;11.20;4.80;;;;;;;11.65;34.61;101185.67;104742;1267;59691;-60
2023/12/09 01:36:54;;;;;;;9.30;4.40;;;;;;;11.63;34.70;101185.84;105067;1267;59803;-60
2023/12/09 01:39:21;;;;;;;11.60;4.90;;;;;;;11.62;34.72;101188.16;104718;1267;73108;-60
2023/12/09 01:41:49;;;;;;;12.40;4.50;;;;;;;11.61;34.72;101188.05;104643;1269;60235;-60
2023/12/09 01:44:17;;;;;;;14.00;5.10;;;;;;;11.60;34.57;101191.17;104823;1267;62535;-58
2023/12/09 01:46:44;;;;;;;13.20;5.10;;;;;;;11.56;34.55;101193.19;104803;1265;59734;-59
2023/12/09 01:49:13;;;;;;;9.10;3.30;;;;;;;11.56;34.58;101188.83;104782;1265;59567;-59
2023/12/09 01:51:42;;;;;;;11.50;5.60;;;;;;;11.57;34.71;101185.38;104708;1267;64520;-59
2023/12/09 01:54:10;;;;;;;10.80;4.60;;;;;;;11.58;34.85;101186.23;104869;1269;60174;-61
2023/12/09 01:56:37;;;;;;;9.10;3.40;;;;;;;11.55;34.81;101184.32;104878;1267;62488;-60
2023/12/09 01:59:05;;;;;;;10.80;4.50;;;;;;;11.50;34.75;101185.55;104720;1267;59812;-59
2023/12/09 02:01:33;;;;;;;9.60;5.20;;;;;;;11.50;34.83;101184.13;104577;1264;59714;-59
2023/12/09 02:04:01;;;;;;;11.10;5.40;;;;;;;11.40;35.02;101187.30;104554;1267;64765;-59
2023/12/09 02:06:29;;;;;;;13.50;5.70;;;;;;;11.21;35.21;101191.42;105375;1264;60234;-60
2023/12/09 02:08:57;;;;;;;12.10;5.30;;;;;;;11.17;35.25;101193.63;104850;1264;63833;-59
2023/12/09 02:11:25;;;;;;;12.20;5.30;;;;;;;11.16;35.36;101191.73;104856;1264;59705;-60
2023/12/09 02:14:04;;;;;;;12.50;6.60;;;;;;;11.18;35.44;101187.96;104834;1263;59686;-57
2023/12/09 02:16:43;;;;;;;12.70;5.00;;;;;;;11.24;35.34;101189.10;105227;1266;64652;-57
2023/12/09 02:19:13;;;;;;;8.60;3.10;;;;;;;11.32;35.26;101188.35;105122;1263;61467;-59
2023/12/09 02:22:01;;;;;;;14.00;3.40;;;;;;;11.45;35.19;101189.40;105044;1263;62554;-61
2023/12/09 02:24:28;;;;;;;10.50;3.90;;;;;;;11.59;35.26;101188.05;106217;1263;59727;-62
2023/12/09 02:27:18;;;;;;;11.00;5.40;;;;;;;11.66;35.00;101186.45;104766;1266;59672;-64
2023/12/09 02:29:54;;;;;;;11.30;5.30;;;;;;;11.68;34.94;101189.67;104781;1267;63288;-62
2023/12/09 02:32:24;;;;;;;11.70;5.90;;;;;;;11.65;35.01;101189.55;104823;1266;60136;-61
2023/12/09 02:34:52;;;;;;;14.70;4.50;;;;;;;11.65;34.86;101187.80;104864;1264;64205;-60
2023/12/09 02:37:20;;;;;;;8.50;4.60;;;;;;;11.62;34.94;101188.38;104789;1263;59714;-63
2023/12/09 02:39:48;;;;;;;10.60;4.50;;;;;;;11.58;35.04;101183.35;104763;1263;59755;-61
2023/12/09 02:42:15;;;;;;;12.10;5.50;;;;;;;11.56;34.94;101181.20;104917;1264;64306;-60
2023/12/09 02:44:43;;;;;;;14.00;5.50;;;;;;;11.51;34.99;101181.61;104784;1262;70115;-63
2023/12/09 02:47:14;;;;;;;11.90;3.50;;;;;;;11.49;35.04;101178.20;104843;1263;63842;-62
2023/12/09 02:49:42;;;;;;;11.40;4.70;;;;;;;11.49;34.99;101176.13;104775;1262;59663;-64
2023/12/09 02:52:11;;;;;;;11.10;5.10;;;;;;;11.45;34.98;101178.00;105113;1263;59662;-62
2023/12/09 02:54:38;;;;;;;11.00;3.70;;;;;;;11.38;35.09;101177.75;105192;1263;62837;-61
2023/12/09 02:57:06;;;;;;;9.00;3.30;;;;;;;11.38;35.11;101179.50;104725;1263;61466;-59
2023/12/09 02:59:34;;;;;;;8.90;4.30;;;;;;;11.44;35.10;101181.23;104756;1264;62498;-60
2023/12/09 03:02:01;;;;;;;11.50;4.40;;;;;;;11.55;35.17;101180.60;105329;1266;59765;-60
2023/12/09 03:04:31;;;;;;;8.70;3.60;;;;;;;11.66;34.99;101182.95;104880;1265;59755;-60
2023/12/09 03:06:58;;;;;;;9.90;4.30;;;;;;;11.74;35.01;101184.54;105480;1262;64102;-61
2023/12/09 03:09:26;;;;;;;11.70;5.00;;;;;;;11.76;34.96;101184.38;104886;1263;61371;-60
2023/12/09 03:11:54;;;;;;;10.40;3.70;;;;;;;11.82;34.98;101188.02;104874;1262;63675;-60
2023/12/09 03:14:22;;;;;;;10.10;5.10;;;;;;;11.86;34.92;101184.01;104863;1263;59701;-60
2023/12/09 03:16:50;;;;;;;12.50;3.80;;;;;;;11.87;34.85;101186.18;104843;1266;59704;-59
2023/12/09 03:19:17;;;;;;;10.40;4.90;;;;;;;11.80;34.66;101187.20;104954;1263;64218;-60
2023/12/09 03:21:45;;;;;;;13.70;6.30;;;;;;;11.68;34.79;101192.50;105105;1263;61442;-59
2023/12/09 03:24:13;;;;;;;8.30;3.20;;;;;;;11.61;34.88;101192.27;105035;1260;64348;-60
2023/12/09 03:26:41;;;;;;;13.40;3.90;;;;;;;11.54;34.91;101189.46;104949;1263;60965;-65
2023/12/09 03:29:08;;;;;;;11.40;4.30;;;;;;;11.43;34.98;101190.10;104929;1263;59672;-62
2023/12/09 03:31:39;;;;;;;9.90;4.70;;;;;;;11.31;35.10;101187.77;105315;1259;62933;-63
2023/12/09 03:34:07;;;;;;;9.80;4.50;;;;;;;11.22;35.19;101185.34;105450;1260;60179;-62
2023/12/09 03:36:35;;;;;;;10.80;4.30;;;;;;;11.25;35.22;101188.13;104886;1263;66490;-61
2023/12/09 03:39:03;;;;;;;9.30;3.80;;;;;;;11.33;35.31;101193.19;104955;1260;59983;-60
2023/12/09 03:41:31;;;;;;;12.40;5.30;;;;;;;11.45;35.28;101197.32;105394;1260;59735;-60
2023/12/09 03:43:59;;;;;;;9.30;3.60;;;;;;;11.46;35.32;101200.73;104924;1260;64122;-62
2023/12/09 03:46:26;;;;;;;10.20;4.30;;;;;;;11.43;35.34;101204.08;105073;1262;62015;-62
2023/12/09 03:48:54;;;;;;;12.80;6.00;;;;;;;11.46;35.38;101206.72;104956;1261;63687;-62
2023/12/09 03:51:22;;;;;;;14.10;5.60;;;;;;;11.45;35.30;101203.13;104926;1259;59752;-62
2023/12/09 03:53:50;;;;;;;14.20;4.40;;;;;;;11.40;35.26;101202.04;104939;1260;59740;-60
2023/12/09 03:56:17;;;;;;;12.60;4.70;;;;;;;11.37;35.27;101205.92;104966;1263;62887;-60
2023/12/09 03:58:45;;;;;;;10.90;5.10;;;;;;;11.32;35.36;101202.02;105054;1261;61371;-59
2023/12/09 04:01:13;;;;;;;12.50;5.70;;;;;;;11.26;35.30;101204.44;104976;1263;62518;-59
2023/12/09 04:03:40;;;;;;;17.70;6.60;;;;;;;11.21;35.50;101204.59;104842;1263;59736;-59
2023/12/09 04:06:08;;;;;;;10.60;4.30;;;;;;;11.23;35.53;101203.79;104876;1264;60489;-57
2023/12/09 04:08:36;;;;;;;9.40;3.40;;;;;;;11.31;35.40;101200.36;104898;1264;62832;-63
2023/12/09 04:11:04;;;;;;;13.10;5.20;;;;;;;11.40;35.37;101200.80;105012;1263;60115;-58
2023/12/09 04:13:32;;;;;;;11.90;4.70;;;;;;;11.46;35.21;101200.38;105490;1261;62493;-55
2023/12/09 04:16:01;;;;;;;9.10;4.20;;;;;;;11.52;35.21;101200.65;105434;1260;59778;-57
2023/12/09 04:18:28;;;;;;;11.80;4.30;;;;;;;11.53;35.16;101200.06;105482;1260;59704;-58
2023/12/09 04:20:57;;;;;;;17.70;4.90;;;;;;;11.50;35.23;101198.34;105551;1260;62911;-58
2023/12/09 04:23:25;;;;;;;10.80;4.90;;;;;;;11.49;35.28;101198.20;105565;1261;60268;-59
2023/12/09 04:25:52;;;;;;;14.50;5.40;;;;;;;11.51;35.42;101197.90;104870;1261;62491;-57
2023/12/09 04:28:20;;;;;;;12.80;5.50;;;;;;;11.50;35.30;101190.23;105242;1255;59723;-58
2023/12/09 04:30:48;;;;;;;12.60;4.30;;;;;;;11.45;35.27;101190.83;105302;1254;59717;-58
2023/12/09 04:33:15;;;;;;;12.20;4.40;;;;;;;11.41;35.30;101189.70;105325;1260;64143;-55
2023/12/09 04:35:43;;;;;;;10.90;4.10;;;;;;;11.40;35.31;101190.79;105297;1255;60087;-56
2023/12/09 04:38:11;;;;;;;17.10;6.30;;;;;;;11.38;35.27;101192.58;105272;1257;63667;-57
2023/12/09 04:40:38;;;;;;;15.50;5.80;;;;;;;11.33;35.27;101196.89;105551;1257;60473;-56
2023/12/09 04:43:06;;;;;;;12.40;4.70;;;;;;;11.31;35.25;101200.05;105253;1256;60366;-55
2023/12/09 04:45:34;;;;;;;11.50;4.40;;;;;;;11.33;35.29;101199.69;105236;1257;65060;-56
2023/12/09 04:48:03;;;;;;;12.30;5.20;;;;;;;11.31;35.58;101201.45;105616;1257;61412;-56
2023/12/09 04:50:30;;;;;;;10.20;4.10;;;;;;;11.40;35.63;101198.03;105657;1257;64222;-59
2023/12/09 04:52:58;;;;;;;11.30;4.00;;;;;;;11.46;35.46;101194.06;105233;1254;60545;-60
2023/12/09 04:55:26;;;;;;;9.10;4.40;;;;;;;11.46;35.55;101195.45;105912;1256;60411;-58
2023/12/09 04:57:54;;;;;;;12.10;4.50;;;;;;;11.50;35.59;101197.08;105286;1257;64940;-58
2023/12/09 05:00:21;;;;;;;13.70;4.80;;;;;;;11.57;35.58;101201.34;105243;1260;61386;-58
2023/12/09 05:02:49;;;;;;;10.80;4.40;;;;;;;11.61;35.37;101206.89;105407;1257;62501;-56
2023/12/09 05:05:18;;;;;;;12.80;5.50;;;;;;;11.58;35.18;101212.42;105348;1259;60566;-57
2023/12/09 05:07:46;;;;;;;11.90;5.00;;;;;;;11.55;35.17;101218.77;105429;1260;60371;-57
2023/12/09 05:10:14;;;;;;;11.10;4.20;;;;;;;11.57;35.11;101219.79;105224;1257;64600;-58
2023/12/09 05:12:41;;;;;;;11.00;4.60;;;;;;;11.68;34.99;101222.05;106076;1260;60625;-56
2023/12/09 05:15:10;;;;;;;13.50;5.10;;;;;;;11.61;35.10;101228.70;105094;1260;63698;-56
2023/12/09 05:17:38;;;;;;;15.60;7.10;;;;;;;11.57;35.18;101228.95;105227;1256;60559;-58
2023/12/09 05:20:08;;;;;;;10.80;4.90;;;;;;;11.57;35.16;101229.34;105631;1260;60392;-58
2023/12/09 05:22:37;;;;;;;8.90;4.00;;;;;;;11.54;35.17;101230.55;105652;1257;63728;-56
2023/12/09 05:25:05;;;;;;;14.60;5.30;;;;;;;11.54;35.18;101230.55;105274;1254;61578;-56
2023/12/09 05:27:33;;;;;;;10.70;4.40;;;;;;;11.61;35.00;101233.75;105700;1260;63684;-56
2023/12/09 05:30:01;;;;;;;9.60;3.90;;;;;;;11.68;35.02;101236.27;105173;1254;60607;-58
2023/12/09 05:32:28;;;;;;;12.30;6.00;;;;;;;11.75;34.94;101238.73;105810;1259;60462;-60
2023/12/09 05:34:56;;;;;;;12.10;4.80;;;;;;;11.78;34.88;101239.65;105227;1255;63692;-58
2023/12/09 05:37:24;;;;;;;11.30;4.40;;;;;;;11.74;34.88;101244.79;105262;1257;61371;-59
2023/12/09 05:39:52;;;;;;;11.40;4.90;;;;;;;11.71;34.93;101248.84;105286;1257;62554;-58
2023/12/09 05:42:19;;;;;;;14.40;6.30;;;;;;;11.70;35.01;101246.83;105269;1256;60537;-55
2023/12/09 05:44:47;;;;;;;15.80;5.70;;;;;;;11.66;35.04;101246.04;105267;1260;60309;-58
2023/12/09 05:47:14;;;;;;;10.80;4.20;;;;;;;11.60;34.97;101247.58;105309;1260;64875;-58
2023/12/09 05:49:42;;;;;;;12.20;5.50;;;;;;;11.53;34.96;101245.94;105243;1254;61694;-59
2023/12/09 05:52:10;;;;;;;10.60;4.70;;;;;;;11.44;35.01;101240.21;105195;1257;63754;-58
2023/12/09 05:54:37;;;;;;;14.50;5.80;;;;;;;11.36;35.05;101243.96;105446;1257;61725;-58
2023/12/09 05:57:05;;;;;;;9.80;4.10;;;;;;;11.30;35.23;101247.14;105227;1259;60350;-57
2023/12/09 05:59:33;;;;;;;14.70;6.60;;;;;;;11.27;35.32;101247.20;105235;1254;66484;-59
2023/12/09 06:02:00;;;;;;;15.80;5.20;;;;;;;11.27;35.36;101247.58;105245;1254;61336;-56
2023/12/09 06:04:28;;;;;;;16.40;5.90;;;;;;;11.30;35.32;101248.40;105251;1257;63610;-57
2023/12/09 06:06:56;;;;;;;10.20;3.60;;;;;;;11.37;35.26;101244.97;105196;1255;60581;-56
2023/12/09 06:09:24;;;;;;;10.20;4.70;;;;;;;11.43;35.16;101242.45;105231;1254;60539;-58
2023/12/09 06:11:51;;;;;;;9.40;3.90;;;;;;;11.53;35.19;101237.15;105300;1257;63704;-56
2023/12/09 06:14:19;;;;;;;15.50;4.70;;;;;;;11.64;35.18;101235.50;105247;1259;62330;-56
2023/12/09 06:16:47;;;;;;;11.50;4.40;;;;;;;11.69;35.03;101236.87;105292;1257;63738;-55
2023/12/09 06:19:15;;;;;;;11.60;5.30;;;;;;;11.64;34.81;101238.27;105207;1257;61045;-56
2023/12/09 06:21:43;;;;;;;9.60;3.90;;;;;;;11.53;35.03;101235.39;105287;1257;60495;-59
2023/12/09 06:24:13;;;;;;;14.80;5.60;;;;;;;11.46;35.00;101233.73;105266;1258;64948;-61
2023/12/09 06:26:44;;;;;;;10.30;5.50;;;;;;;11.41;35.00;101237.14;105422;1254;61442;-60
2023/12/09 06:29:15;;;;;;;13.80;6.00;;;;;;;11.35;35.15;101239.26;105447;1256;62424;-60
2023/12/09 06:31:43;;;;;;;17.90;6.80;;;;;;;11.35;35.17;101232.59;105254;1259;60453;-59
2023/12/09 06:34:10;;;;;;;13.50;6.00;;;;;;;11.34;35.21;101238.27;105317;1254;60549;-60
2023/12/09 06:36:38;;;;;;;11.40;4.70;;;;;;;11.33;35.22;101240.95;105209;1256;64924;-60
2023/12/09 06:39:06;;;;;;;16.00;7.50;;;;;;;11.29;35.23;101241.77;105282;1254;60512;-60
2023/12/09 06:41:38;;;;;;;12.90;6.40;;;;;;;11.27;35.33;101235.10;105308;1259;73042;-59
2023/12/09 06:44:05;;;;;;;12.80;5.30;;;;;;;11.29;35.23;101236.39;105586;1257;61661;-62
2023/12/09 06:46:36;;;;;;;11.40;5.80;;;;;;;11.40;35.11;101232.64;105609;1260;60347;-59
2023/12/09 06:49:05;;;;;;;9.50;4.30;;;;;;;11.52;35.08;101230.38;105724;1254;64965;-62
2023/12/09 06:51:33;;;;;;;12.00;4.20;;;;;;;11.65;35.11;101232.08;105693;1257;62844;-62
2023/12/09 06:54:01;;;;;;;11.50;5.60;;;;;;;11.79;35.07;101236.56;105179;1260;62508;-61
2023/12/09 06:56:29;;;;;;;11.90;4.90;;;;;;;11.90;35.00;101239.97;105809;1256;60494;-61
2023/12/09 06:58:57;;;;;;;17.40;6.90;;;;;;;11.98;34.82;101239.62;105206;1257;60393;-60
2023/12/09 07:01:26;;;;;;;10.10;4.40;;;;;;;12.03;34.68;101242.19;105230;1260;64863;-61
2023/12/09 07:03:55;;;;;;;11.10;4.30;;;;;;;12.07;34.43;101241.25;105838;1259;61364;-60
2023/12/09 07:06:24;;;;;;;15.50;6.20;;;;;;;12.02;34.27;101243.02;105304;1257;62513;-59
2023/12/09 07:08:52;;;;;;;13.70;5.40;;;;;;;11.95;34.22;101250.20;105284;1256;60514;-59
2023/12/09 07:11:21;;;;;;;11.40;4.40;;;;;;;11.85;34.27;101252.49;105398;1260;60489;-59
2023/12/09 07:13:49;;;;;;;14.50;6.90;;;;;;;11.73;34.31;101247.36;105287;1254;63670;-60
2023/12/09 07:16:17;;;;;;;13.60;5.90;;;;;;;11.61;34.41;101247.65;105175;1262;60502;-61
2023/12/09 07:18:46;;;;;;;11.80;5.90;;;;;;;11.50;34.61;101249.63;105230;1257;62515;-62
2023/12/09 07:21:15;;;;;;;10.90;5.50;;;;;;;11.47;34.70;101250.02;105320;1262;60540;-59
2023/12/09 07:23:44;;;;;;;8.90;3.60;;;;;;;11.57;34.69;101248.65;105937;1260;60453;-59
2023/12/09 07:26:13;;;;;;;11.20;4.00;;;;;;;11.75;34.67;101247.40;105785;1254;64132;-59
2023/12/09 07:28:41;;;;;;;11.70;4.70;;;;;;;11.89;34.64;101248.66;105515;1260;69342;-60
2023/12/09 07:31:08;;;;;;;12.60;5.50;;;;;;;12.03;34.57;101248.39;105287;1260;62456;-61
2023/12/09 07:33:38;;;;;;;11.20;4.90;;;;;;;12.13;34.27;101242.95;105624;1254;60503;-60
2023/12/09 07:36:07;;;;;;;12.00;4.40;;;;;;;12.15;33.94;101246.61;105839;1257;60587;-59
2023/12/09 07:38:45;;;;;;;11.80;5.20;;;;;;;12.08;33.93;101252.95;106215;1254;63722;-59
2023/12/09 07:41:22;;;;;;;11.50;5.20;;;;;;;12.07;34.12;101259.52;106661;1257;60544;-60
2023/12/09 07:44:01;;;;;;;11.30;4.50;;;;;;;12.11;34.18;101263.71;105825;1258;72500;-61
2023/12/09 07:46:32;;;;;;;11.90;4.50;;;;;;;12.13;34.11;101263.70;105496;1262;60488;-61
2023/12/09 07:49:02;;;;;;;17.50;6.50;;;;;;;12.12;34.09;101267.63;105821;1257;60300;-61
2023/12/09 07:51:30;;;;;;;12.30;5.90;;;;;;;12.09;34.03;101273.12;105830;1262;63724;-60
2023/12/09 07:53:57;;;;;;;12.40;6.00;;;;;;;12.05;34.00;101277.92;105304;1260;60632;-60
2023/12/09 07:56:25;;;;;;;11.30;4.70;;;;;;;12.03;33.94;101277.90;105873;1256;62448;-62
2023/12/09 07:58:53;;;;;;;13.80;5.20;;;;;;;12.01;33.94;101279.84;105947;1259;60451;-61
2023/12/09 08:01:20;;;;;;;10.70;5.30;;;;;;;11.99;33.95;101282.77;105185;1255;60613;-62
2023/12/09 08:03:48;;;;;;;10.90;4.50;;;;;;;11.97;33.96;101283.79;105329;1257;63633;-63
2023/12/09 08:06:16;;;;;;;9.20;4.90;;;;;;;11.93;33.88;101282.16;105242;1260;60396;-66
2023/12/09 08:08:44;;;;;;;9.00;3.80;;;;;;;11.91;33.97;101282.98;105308;1260;62491;-67
2023/12/09 08:11:12;;;;;;;10.10;4.40;;;;;;;11.94;34.00;101278.54;105362;1257;60658;-67
2023/12/09 08:13:42;;;;;;;9.10;3.90;;;;;;;12.07;33.86;101276.39;105677;1260;60364;-66
2023/12/09 08:16:10;;;;;;;8.00;3.00;;;;;;;12.19;33.68;101275.89;105453;1260;64968;-66
2023/12/09 08:18:38;;;;;;;11.20;5.30;;;;;;;12.31;33.70;101272.93;105834;1254;61554;-72
2023/12/09 08:21:06;;;;;;;11.40;5.30;;;;;;;12.42;33.64;101271.27;105553;1254;64202;-62
2023/12/09 08:23:33;;;;;;;9.40;5.00;;;;;;;12.46;33.44;101268.11;105220;1257;61757;-62
2023/12/09 08:26:02;;;;;;;12.30;5.60;;;;;;;12.50;33.46;101270.14;105263;1257;60335;-62
2023/12/09 08:28:34;;;;;;;13.10;5.80;;;;;;;12.57;33.45;101267.89;105917;1254;63629;-62
2023/12/09 08:31:04;;;;;;;11.50;5.40;;;;;;;12.68;33.36;101264.77;106436;1254;63307;-61
2023/12/09 08:33:35;;;;;;;10.10;3.50;;;;;;;12.63;33.18;101260.90;106537;1257;64065;-60
2023/12/09 08:36:04;;;;;;;9.50;3.70;;;;;;;12.61;33.10;101260.14;105577;1260;60571;-61
2023/12/09 08:38:32;;;;;;;13.10;4.50;;;;;;;12.61;33.01;101259.64;105735;1260;59574;-60
2023/12/09 08:41:00;;;;;;;11.10;4.50;;;;;;;12.64;33.01;101255.14;105205;1260;64929;-62
2023/12/09 08:43:27;;;;;;;10.90;5.80;;;;;;;12.72;32.74;101254.55;105244;1254;61451;-64
2023/12/09 08:45:55;;;;;;;8.60;3.40;;;;;;;12.70;32.73;101251.94;105255;1260;63768;-61
2023/12/09 08:48:26;;;;;;;8.40;4.10;;;;;;;12.53;32.99;101246.52;105241;1260;60453;-61
2023/12/09 08:50:56;;;;;;;9.50;4.00;;;;;;;12.54;32.86;101244.30;105706;1262;60460;-58
2023/12/09 08:53:24;;;;;;;10.60;5.30;;;;;;;12.45;32.91;101240.58;105298;1254;63723;-58
2023/12/09 08:55:52;;;;;;;8.40;3.80;;;;;;;12.44;32.72;101234.84;105123;1259;60482;-58
2023/12/09 08:58:19;;;;;;;8.80;3.70;;;;;;;12.51;32.62;101231.86;104860;1257;63701;-62
2023/12/09 09:00:47;;;;;;;9.90;3.50;;;;;;;12.56;32.35;101230.46;105910;1254;60444;-60
2023/12/09 09:03:19;;;;;;;7.30;3.20;;;;;;;12.48;32.28;101228.90;105751;1254;60581;-54
2023/12/09 09:05:47;;;;;;;8.20;3.20;;;;;;;12.36;32.32;101226.65;105289;1260;63679;-55
2023/12/09 09:08:15;;;;;;;5.80;2.10;;;;;;;12.24;32.41;101225.56;105260;1260;60451;-60
2023/12/09 09:10:43;;;;;;;6.70;2.70;;;;;;;12.17;32.36;101224.15;105223;1257;63670;-61
2023/12/09 09:13:10;;;;;;;5.20;2.00;;;;;;;12.24;32.22;101218.88;105496;1257;60793;-60
2023/12/09 09:15:38;;;;;;;5.10;1.80;;;;;;;12.22;31.98;101219.89;105202;1257;61300;-59
2023/12/09 09:18:06;;;;;;;5.60;2.40;;;;;;;12.12;32.09;101217.66;105275;1263;63653;-60
2023/12/09 09:20:34;;;;;;;5.20;2.60;;;;;;;12.14;32.17;101221.60;105687;1254;61483;-60
2023/12/09 09:23:02;;;;;;;5.10;2.30;;;;;;;12.16;32.07;101218.23;105292;1256;64316;-60
2023/12/09 09:25:30;;;;;;;6.10;1.70;;;;;;;12.24;31.76;101216.11;105287;1260;60523;-62
2023/12/09 09:27:58;;;;;;;4.00;1.50;;;;;;;12.29;31.56;101215.02;105783;1257;60363;-61
2023/12/09 09:30:26;;;;;;;4.80;1.80;;;;;;;12.24;31.78;101213.27;105281;1254;65410;-61
2023/12/09 09:32:53;;;;;;;5.20;1.50;;;;;;;12.24;31.89;101211.89;105254;1258;60421;-58
2023/12/09 09:35:21;;;;;;;6.30;2.30;;;;;;;12.16;32.02;101208.38;105254;1261;62471;-60
2023/12/09 09:37:49;;;;;;;5.50;1.80;;;;;;;12.06;32.14;101207.89;105224;1257;60519;-60
2023/12/09 09:40:17;;;;;;;4.10;1.50;;;;;;;12.10;31.97;101205.66;105418;1260;60454;-61
2023/12/09 09:42:55;;;;;;;7.30;2.10;;;;;;;12.11;31.98;101203.84;105245;1260;64957;-60
2023/12/09 09:50:10;;;;;;;4.70;1.80;;;;;;;12.34;32.00;101199.36;105275;1260;65240;-61
2023/12/09 09:52:40;;;;;;;5.90;1.80;;;;;;;12.38;31.94;101192.34;105534;1269;60543;-62
2023/12/09 09:55:08;;;;;;;6.40;2.20;;;;;;;12.39;31.93;101189.59;105711;1255;60584;-60
2023/12/09 09:57:35;;;;;;;4.00;1.40;;;;;;;12.39;31.98;101188.04;105141;1263;64919;-61
2023/12/09 10:00:13;;;;;;;4.90;1.90;;;;;;;12.38;32.07;101189.58;105037;1260;60424;-57
2023/12/09 10:02:50;;;;;;;5.30;1.90;;;;;;;12.49;31.97;101183.08;105329;1257;62631;-57
2023/12/09 10:05:23;;;;;;;6.50;1.80;;;;;;;12.63;31.65;101180.83;104929;1263;60488;-56
2023/12/09 10:07:52;;;;;;;4.00;1.50;;;;;;;12.67;31.55;101176.44;105085;1259;60607;-55
2023/12/09 10:10:19;;;;;;;5.20;2.10;;;;;;;12.58;31.76;101177.34;105225;1256;63626;-55
2023/12/09 10:12:47;;;;;;;9.80;2.20;;;;;;;12.49;31.88;101178.67;105045;1260;61322;-55
2023/12/09 10:15:15;;;;;;;5.00;2.00;;;;;;;12.57;31.77;101178.95;105064;1260;71421;-58
2023/12/09 10:17:43;;;;;;;7.10;2.20;;;;;;;12.45;31.47;101179.84;104983;1259;60698;-61
2023/12/09 10:20:12;;;;;;;3.50;1.10;;;;;;;12.28;31.46;101181.27;104948;1260;60450;-60
2023/12/09 10:22:39;;;;;;;7.20;1.60;;;;;;;12.29;31.46;101180.39;109036;1254;64872;-59
2023/12/09 10:25:08;;;;;;;6.00;2.10;;;;;;;12.47;31.10;101174.98;108985;1254;60274;-58
2023/12/09 10:27:35;;;;;;;7.00;2.40;;;;;;;12.42;31.17;101175.01;109109;1257;63797;-59
2023/12/09 10:30:06;;;;;;;6.90;2.70;;;;;;;12.20;31.44;101173.81;109042;1254;58508;-59
2023/12/09 10:32:36;;;;;;;7.10;2.30;;;;;;;12.09;31.77;101170.41;106520;1260;60475;-60
2023/12/09 10:35:05;;;;;;;8.30;3.40;;;;;;;12.07;32.04;101166.11;105200;1254;63709;-61
2023/12/09 10:37:33;;;;;;;7.30;2.80;;;;;;;12.10;32.04;101160.48;105617;1260;60434;-60
2023/12/09 10:40:02;;;;;;;7.00;2.40;;;;;;;12.08;31.79;101154.66;105220;1260;64286;-58
2023/12/09 10:42:30;;;;;;;6.20;2.10;;;;;;;12.05;31.89;101148.52;105717;1259;60479;-58
2023/12/09 10:45:03;;;;;;;4.40;1.80;;;;;;;12.06;31.95;101145.31;105148;1262;60383;-61
2023/12/09 10:47:31;;;;;;;6.10;2.00;;;;;;;12.02;32.15;101143.98;105289;1254;63863;-59
2023/12/09 10:49:58;;;;;;;6.40;2.00;;;;;;;12.05;32.19;101137.44;105253;1260;60420;-59
2023/12/09 10:52:26;;;;;;;9.30;2.60;;;;;;;12.01;32.25;101132.27;105803;1258;63165;-59
2023/12/09 10:54:55;;;;;;;7.80;3.20;;;;;;;11.99;32.28;101129.46;105936;1260;60575;-58
2023/12/09 10:57:23;;;;;;;5.10;2.20;;;;;;;11.97;32.26;101129.80;105363;1259;60517;-59
2023/12/09 10:59:52;;;;;;;7.10;2.80;;;;;;;11.97;32.31;101125.70;105325;1255;63737;-58
2023/12/09 11:02:21;;;;;;;6.40;2.90;;;;;;;11.93;32.04;101122.50;105327;1260;61332;-58
2023/12/09 11:04:49;;;;;;;6.30;2.70;;;;;;;11.89;32.16;101127.17;105301;1258;62438;-56
2023/12/09 11:07:16;;;;;;;6.40;2.60;;;;;;;11.84;32.01;101124.59;105356;1257;60392;-60
2023/12/09 11:09:44;;;;;;;11.90;2.70;;;;;;;11.69;31.87;101124.90;105228;1260;59484;-58
2023/12/09 11:12:28;;;;;;;8.80;3.60;;;;;;;11.55;31.87;101123.63;105168;1255;63723;-59
2023/12/09 11:15:23;;;;;;;7.80;3.00;;;;;;;11.48;32.20;101128.90;105864;1260;60532;-59
2023/12/09 11:17:51;;;;;;;5.80;2.50;;;;;;;11.42;32.29;101127.09;105226;1260;63739;-58
2023/12/09 11:20:22;;;;;;;7.40;2.40;;;;;;;11.33;32.42;101125.58;105358;1260;60577;-58
2023/12/09 11:22:50;;;;;;;5.20;2.50;;;;;;;11.31;32.37;101123.45;105293;1259;59654;-59
2023/12/09 11:25:18;;;;;;;8.50;2.40;;;;;;;11.34;32.43;101121.99;105143;1256;64952;-58
2023/12/09 11:27:48;;;;;;;8.60;2.80;;;;;;;11.38;32.52;101124.52;105351;1259;61332;-59
2023/12/09 11:30:46;;;;;;;6.80;1.90;;;;;;;11.42;32.43;101119.30;105206;1261;63694;-58
2023/12/09 11:33:14;;;;;;;8.40;3.90;;;;;;;11.51;32.26;101118.71;105393;1257;60524;-58
2023/12/09 11:35:42;;;;;;;7.60;2.40;;;;;;;11.43;32.21;101119.29;105462;1260;60454;-59